createdAt,value
2022-11-13T04:08:28.782Z,51.42
2022-11-13T04:11:15.701Z,48.20
2022-11-13T04:14:02.194Z,51.05
2022-11-13T04:16:48.727Z,51.33
2022-11-13T04:19:35.241Z,49.30
2022-11-13T04:22:21.714Z,55.30
2022-11-13T04:25:10.429Z,52.03
2022-11-13T04:27:56.851Z,54.60
2022-11-13T04:30:43.396Z,54.05
2022-11-13T04:33:29.957Z,56.88
2022-11-13T04:36:16.593Z,49.17
2022-11-13T04:39:03.376Z,55.85
2022-11-13T04:42:09.224Z,50.20
2022-11-13T04:44:56.019Z,50.58
2022-11-13T04:47:43.179Z,42.17
2022-11-13T04:50:29.795Z,45.28
2022-11-13T04:53:16.771Z,45.10
2022-11-13T04:56:04.412Z,52.05
2022-11-13T04:58:52.313Z,49.35
2022-11-13T05:01:38.780Z,51.35
2022-11-13T05:04:25.450Z,52.65
2022-11-13T05:07:13.045Z,52.67
2022-11-13T05:09:59.688Z,50.85
2022-11-13T05:12:46.210Z,48.80
2022-11-13T05:15:33.973Z,48.22
2022-11-13T05:18:20.480Z,47.30
2022-11-13T05:21:08.266Z,49.28
2022-11-13T05:23:55.118Z,47.42
2022-11-13T05:26:41.969Z,48.38
2022-11-13T05:29:28.731Z,45.67
2022-11-13T05:32:16.489Z,43.13
2022-11-13T05:35:03.093Z,46.25
2022-11-13T05:37:49.666Z,43.80
2022-11-13T05:40:36.342Z,44.08
2022-11-13T05:43:23.104Z,48.50
2022-11-13T05:46:15.438Z,47.67
2022-11-13T05:49:04.553Z,48.10
2022-11-13T05:51:51.397Z,49.55
2022-11-13T05:54:37.928Z,50.42
2022-11-13T05:57:24.757Z,46.00
2022-11-13T06:00:12.665Z,47.33
2022-11-13T06:03:00.910Z,47.00
2022-11-13T06:05:49.271Z,51.30
2022-11-13T06:08:36.412Z,51.33
2022-11-13T06:11:25.371Z,51.03
2022-11-13T06:14:12.275Z,53.83
2022-11-13T06:16:58.944Z,51.13
2022-11-13T06:19:45.491Z,51.47
2022-11-13T06:22:33.556Z,50.50
2022-11-13T06:25:20.076Z,54.30
2022-11-13T06:28:06.675Z,50.90
2022-11-13T06:30:53.542Z,41.45
2022-11-13T06:33:41.639Z,45.83
2022-11-13T06:36:30.491Z,48.15
2022-11-13T06:39:18.429Z,47.70
2022-11-13T06:42:06.506Z,47.10
2022-11-13T06:44:53.199Z,44.42
2022-11-13T06:47:40.100Z,47.50
2022-11-13T06:50:26.889Z,45.88
2022-11-13T06:53:13.343Z,46.90
2022-11-13T06:56:01.579Z,48.90
2022-11-13T06:58:48.496Z,41.90
2022-11-13T07:01:36.180Z,39.83
2022-11-13T07:04:23.116Z,39.45
2022-11-13T07:07:09.743Z,43.15
2022-11-13T07:09:57.243Z,42.00
2022-11-13T07:12:45.300Z,41.65
2022-11-13T07:15:36.190Z,35.67
2022-11-13T07:18:24.239Z,40.92
2022-11-13T07:21:13.187Z,40.15
2022-11-13T07:23:59.930Z,37.13
2022-11-13T07:26:47.534Z,38.15
2022-11-13T07:29:36.356Z,40.22
2022-11-13T07:32:23.106Z,39.05
2022-11-13T07:35:10.822Z,36.03
2022-11-13T07:37:57.553Z,38.47
2022-11-13T07:40:44.000Z,37.70
2022-11-13T07:43:30.737Z,40.40
2022-11-13T07:46:18.814Z,39.85
2022-11-13T07:49:05.639Z,38.50
2022-11-13T07:51:52.550Z,36.22
2022-11-13T07:54:39.364Z,35.92
2022-11-13T07:57:27.302Z,41.92
2022-11-13T08:00:15.302Z,34.58
2022-11-13T08:03:08.154Z,36.92
2022-11-13T08:06:00.527Z,35.70
2022-11-13T08:08:49.698Z,33.00
2022-11-13T08:11:36.615Z,27.27
2022-11-13T08:14:23.329Z,26.83
2022-11-13T08:17:09.987Z,24.38
2022-11-13T08:19:57.873Z,25.92
2022-11-13T08:22:45.554Z,26.95
2022-11-13T08:25:33.765Z,23.42
2022-11-13T08:28:20.490Z,23.52
2022-11-13T08:31:11.728Z,25.27
2022-11-13T08:33:58.475Z,24.05
2022-11-13T08:36:46.478Z,25.35
2022-11-13T08:39:35.478Z,24.08
2022-11-13T08:42:22.514Z,26.98
2022-11-13T08:45:15.304Z,26.02
2022-11-13T08:48:02.313Z,25.88
2022-11-13T08:50:52.735Z,25.80
2022-11-13T08:53:40.702Z,26.67
2022-11-13T08:56:27.250Z,27.33
2022-11-13T08:59:13.862Z,29.08
2022-11-13T09:02:00.501Z,26.67
2022-11-13T09:04:47.204Z,27.25
2022-11-13T09:07:33.756Z,29.45
2022-11-13T09:10:21.783Z,27.70
2022-11-13T09:13:09.737Z,33.85
2022-11-13T09:15:58.629Z,28.42
2022-11-13T09:18:45.132Z,30.20
2022-11-13T09:21:32.412Z,39.45
2022-11-13T09:24:19.421Z,37.92
2022-11-13T09:27:07.578Z,32.20
2022-11-13T09:29:55.722Z,36.40
2022-11-13T09:32:42.843Z,35.97
2022-11-13T09:35:35.463Z,37.45
2022-11-13T09:38:22.124Z,35.63
2022-11-13T09:41:12.503Z,31.17
2022-11-13T09:44:03.861Z,37.00
2022-11-13T09:46:53.564Z,33.55
2022-11-13T09:49:44.809Z,34.97
2022-11-13T09:52:34.877Z,35.42
2022-11-13T09:55:29.690Z,33.28
2022-11-13T09:58:25.412Z,33.45
2022-11-13T10:01:24.348Z,30.90
2022-11-13T10:04:15.611Z,33.35
2022-11-13T10:07:22.118Z,30.33
2022-11-13T10:10:55.159Z,33.45
2022-11-13T10:13:46.825Z,38.38
2022-11-13T10:16:40.345Z,32.55
2022-11-13T10:19:32.950Z,33.90
2022-11-13T10:22:32.843Z,40.92
2022-11-13T10:25:22.913Z,28.67
2022-11-13T10:28:48.109Z,32.95
2022-11-13T10:31:22.741Z,49.30
2022-11-13T10:34:11.617Z,43.55
2022-11-13T10:37:17.222Z,46.83
2022-11-13T10:40:04.517Z,35.05
2022-11-13T10:42:51.107Z,35.72
2022-11-13T10:45:37.677Z,34.58
2022-11-13T10:48:28.490Z,31.55
2022-11-13T10:51:25.637Z,33.70
2022-11-13T10:54:25.115Z,28.23
2022-11-13T10:57:28.901Z,29.25
2022-11-13T11:00:25.184Z,31.42
2022-11-13T11:03:16.730Z,32.97
2022-11-13T11:06:05.681Z,25.92
2022-11-13T11:08:53.711Z,30.77
2022-11-13T11:11:57.995Z,25.55
2022-11-13T11:14:58.166Z,25.67
2022-11-13T11:17:48.231Z,32.20
2022-11-13T11:20:44.644Z,26.05
2022-11-13T11:23:40.812Z,24.15
2022-11-13T11:26:36.775Z,21.95
2022-11-13T11:29:31.385Z,28.80
2022-11-13T11:32:24.201Z,25.98
2022-11-13T11:35:17.582Z,20.70
2022-11-13T11:38:11.226Z,21.05
2022-11-13T11:41:16.234Z,19.50
2022-11-13T11:44:15.117Z,27.13
2022-11-13T11:47:02.074Z,25.63
2022-11-13T11:49:49.091Z,27.23
2022-11-13T11:52:51.224Z,22.98
2022-11-13T11:55:59.849Z,23.33
2022-11-13T11:59:14.506Z,25.95
2022-11-13T12:02:38.554Z,27.15
2022-11-13T12:05:29.703Z,22.90
2022-11-13T12:08:30.363Z,24.05
2022-11-13T12:11:26.056Z,21.35
2022-11-13T12:14:22.408Z,25.38
2022-11-13T12:17:23.376Z,48.15
2022-11-13T12:20:20.265Z,35.38
2022-11-13T12:23:22.067Z,30.35
2022-11-13T12:26:16.595Z,29.45
2022-11-13T12:29:13.864Z,41.95
2022-11-13T12:32:10.658Z,34.08
2022-11-13T12:35:01.632Z,80.63
2022-11-13T12:37:53.718Z,59.08
2022-11-13T12:40:46.260Z,51.83
2022-11-13T12:43:49.024Z,33.60
2022-11-13T12:46:38.053Z,28.15
2022-11-13T12:49:32.086Z,29.17
2022-11-13T12:52:22.863Z,28.27
2022-11-13T12:55:26.786Z,41.20
2022-11-13T12:58:21.791Z,30.92
2022-11-13T13:01:18.641Z,31.60
2022-11-13T13:04:31.174Z,30.05
2022-11-13T13:07:30.084Z,26.85
2022-11-13T13:10:24.474Z,33.47
2022-11-13T13:13:23.885Z,30.40
2022-11-13T13:16:12.146Z,29.63
2022-11-13T13:19:09.074Z,30.05
2022-11-13T13:21:57.792Z,29.30
2022-11-13T13:24:44.256Z,30.20
2022-11-13T13:27:34.276Z,30.98
2022-11-13T13:30:25.252Z,28.40
2022-11-13T13:33:23.316Z,27.50
2022-11-13T13:36:20.905Z,33.90
2022-11-13T13:39:22.345Z,29.60
2022-11-13T13:42:22.666Z,31.15
2022-11-13T13:45:32.551Z,30.35
2022-11-13T13:48:22.917Z,26.50
2022-11-13T13:51:18.981Z,30.48
2022-11-13T13:54:14.884Z,31.95
2022-11-13T13:57:02.677Z,29.70
2022-11-13T13:59:51.634Z,30.02
2022-11-13T14:02:46.824Z,28.88
2022-11-13T14:05:35.408Z,28.35
2022-11-13T14:08:24.625Z,32.25
2022-11-13T14:11:21.067Z,28.15
2022-11-13T14:14:17.106Z,27.65
2022-11-13T14:17:06.045Z,32.28
2022-11-13T14:19:53.846Z,33.42
2022-11-13T14:22:43.725Z,32.47
2022-11-13T14:25:30.926Z,33.75
2022-11-13T14:28:22.614Z,34.28
2022-11-13T14:31:11.681Z,29.80
2022-11-13T14:34:02.861Z,31.75
2022-11-13T14:36:49.787Z,34.63
2022-11-13T14:39:36.602Z,32.67
2022-11-13T14:42:28.765Z,35.63
2022-11-13T14:45:19.804Z,30.73
2022-11-13T14:48:19.679Z,27.85
2022-11-13T14:51:08.265Z,33.75
2022-11-13T14:54:02.957Z,32.45
2022-11-13T14:56:53.927Z,33.88
2022-11-13T14:59:42.498Z,29.20
2022-11-13T15:02:30.745Z,33.78
2022-11-13T15:05:17.159Z,32.20
2022-11-13T15:08:03.697Z,30.70
2022-11-13T15:10:58.786Z,34.42
2022-11-13T15:13:46.516Z,33.67
2022-11-13T15:16:33.485Z,31.73
2022-11-13T15:19:28.506Z,32.28
2022-11-13T15:22:31.323Z,38.65
2022-11-13T15:25:19.810Z,33.38
2022-11-13T15:28:06.576Z,34.25
2022-11-13T15:30:53.573Z,32.35
2022-11-13T15:33:40.019Z,36.58
2022-11-13T15:36:28.256Z,35.13
2022-11-13T15:39:23.492Z,35.10
2022-11-13T15:42:15.926Z,36.13
2022-11-13T15:45:03.012Z,35.95
2022-11-13T15:47:49.620Z,38.72
2022-11-13T15:50:36.303Z,38.90
2022-11-13T15:53:24.205Z,38.72
2022-11-13T15:56:10.843Z,37.90
2022-11-13T15:58:57.417Z,35.22
2022-11-13T16:01:44.139Z,35.15
2022-11-13T16:04:50.843Z,47.33
2022-11-13T16:07:41.284Z,40.83
2022-11-13T16:10:30.212Z,40.30
2022-11-13T16:13:16.761Z,43.22
2022-11-13T16:16:03.504Z,51.92
2022-11-13T16:18:54.554Z,43.58
2022-11-13T16:21:44.445Z,57.88
2022-11-13T16:24:30.955Z,79.20
2022-11-13T16:27:25.803Z,109.47
2022-11-13T16:30:17.268Z,63.95
2022-11-13T16:33:05.912Z,63.05
2022-11-13T16:35:52.499Z,54.10
2022-11-13T16:38:39.237Z,44.83
2022-11-13T16:41:26.210Z,40.72
2022-11-13T16:44:14.203Z,42.40
2022-11-13T16:47:01.048Z,45.08
2022-11-13T16:49:47.817Z,43.75
2022-11-13T16:52:34.918Z,40.63
2022-11-13T16:55:21.521Z,50.08
2022-11-13T16:58:08.051Z,49.03
2022-11-13T17:01:00.011Z,49.42
2022-11-13T17:03:47.125Z,50.45
2022-11-13T17:06:35.565Z,64.13
2022-11-13T17:09:22.637Z,49.65
2022-11-13T17:12:09.605Z,49.28
2022-11-13T17:14:56.774Z,45.92
2022-11-13T17:17:44.963Z,50.72
2022-11-13T17:20:34.381Z,59.72
2022-11-13T17:23:21.447Z,51.60
2022-11-13T17:26:08.480Z,56.17
2022-11-13T17:28:55.723Z,59.15
2022-11-13T17:31:42.264Z,65.57
2022-11-13T17:34:30.242Z,53.88
2022-11-13T17:37:18.766Z,63.42
2022-11-13T17:40:08.592Z,62.10
2022-11-13T17:42:55.079Z,55.75
2022-11-13T17:45:41.858Z,54.38
2022-11-13T17:48:31.706Z,49.92
2022-11-13T17:51:20.297Z,51.45
2022-11-13T17:54:07.267Z,59.60
2022-11-13T17:56:54.351Z,59.75
2022-11-13T17:59:41.333Z,60.90
2022-11-13T18:02:28.281Z,54.30
2022-11-13T18:05:14.827Z,64.97
2022-11-13T18:08:02.794Z,68.82
2022-11-13T18:10:52.437Z,73.50
2022-11-13T18:13:39.517Z,66.60
2022-11-13T18:16:29.603Z,76.40
2022-11-13T18:19:16.198Z,64.72
2022-11-13T18:22:02.854Z,89.80
2022-11-13T18:24:50.728Z,95.55
2022-11-13T18:27:38.881Z,98.85
2022-11-13T18:30:25.517Z,77.40
2022-11-13T18:33:12.166Z,85.00
2022-11-13T18:35:58.677Z,70.82
2022-11-13T18:38:45.536Z,69.22
2022-11-13T18:41:35.805Z,69.82
2022-11-13T18:44:22.448Z,74.18
2022-11-13T18:47:09.018Z,69.57
2022-11-13T18:49:55.642Z,69.43
2022-11-13T18:52:42.209Z,85.47
2022-11-13T18:55:28.641Z,81.15
2022-11-13T18:58:17.487Z,88.25
2022-11-13T19:01:09.876Z,83.13
2022-11-13T19:04:21.829Z,77.00
2022-11-13T19:07:07.808Z,77.95
2022-11-13T19:09:54.883Z,78.10
2022-11-13T19:12:42.299Z,70.20
2022-11-13T19:15:30.643Z,67.57
2022-11-13T19:18:17.449Z,61.67
2022-11-13T19:21:09.055Z,59.38
2022-11-13T19:23:55.915Z,64.18
2022-11-13T19:26:43.033Z,72.95
2022-11-13T19:29:29.870Z,66.90
2022-11-13T19:32:17.803Z,60.92
2022-11-13T19:35:05.006Z,61.97
2022-11-13T19:37:57.655Z,59.75
2022-11-13T19:40:46.841Z,56.63
2022-11-13T19:43:34.440Z,62.42
2022-11-13T19:46:22.239Z,55.25
2022-11-13T19:49:10.391Z,57.63
2022-11-13T19:51:57.370Z,52.80
2022-11-13T19:54:45.179Z,53.25
2022-11-13T19:57:31.654Z,54.40
2022-11-13T20:00:19.512Z,54.58
2022-11-13T20:03:07.798Z,56.08
2022-11-13T20:05:59.416Z,57.92
2022-11-13T20:08:46.873Z,57.13
2022-11-13T20:11:34.082Z,55.30
2022-11-13T20:14:21.147Z,56.05
2022-11-13T20:17:07.984Z,58.58
2022-11-13T20:19:54.787Z,54.10
2022-11-13T20:22:42.663Z,53.75
2022-11-13T20:25:29.709Z,58.63
2022-11-13T20:28:16.560Z,57.03
2022-11-13T20:31:08.284Z,59.72
2022-11-13T20:33:56.947Z,54.45
2022-11-13T20:36:43.541Z,46.92
2022-11-13T20:39:31.700Z,52.88
2022-11-13T20:42:18.180Z,62.00
2022-11-13T20:45:05.375Z,59.53
2022-11-13T20:47:52.308Z,57.42
2022-11-13T20:50:39.229Z,59.63
2022-11-13T20:53:25.918Z,59.53
2022-11-13T20:56:14.598Z,62.78
2022-11-13T20:59:04.061Z,58.47
2022-11-13T21:01:50.737Z,57.17
2022-11-13T21:04:37.498Z,56.10
2022-11-13T21:07:24.226Z,61.63
2022-11-13T21:10:11.006Z,69.70
2022-11-13T21:12:59.259Z,70.95
2022-11-13T21:15:45.973Z,66.70
2022-11-13T21:18:32.877Z,71.93
2022-11-13T21:21:22.054Z,76.50
2022-11-13T21:24:08.974Z,78.32
2022-11-13T21:26:55.849Z,80.25
2022-11-13T21:29:43.713Z,73.07
2022-11-13T21:32:30.348Z,74.57
2022-11-13T21:35:22.321Z,72.47
2022-11-13T21:38:09.743Z,70.80
2022-11-13T21:41:14.237Z,83.50
2022-11-13T21:44:03.354Z,83.20
2022-11-13T21:46:51.684Z,77.25
2022-11-13T21:49:38.539Z,68.25
2022-11-13T21:52:25.167Z,99.60
2022-11-13T21:55:12.067Z,79.22
2022-11-13T21:57:58.949Z,84.03
2022-11-13T22:00:45.577Z,89.55
2022-11-13T22:03:33.754Z,78.35
2022-11-13T22:06:23.206Z,75.53
2022-11-13T22:09:15.396Z,83.00
2022-11-13T22:12:02.632Z,79.50
2022-11-13T22:14:49.562Z,85.22
2022-11-13T22:17:35.962Z,78.97
2022-11-13T22:20:23.917Z,75.97
2022-11-13T22:23:10.675Z,76.43
2022-11-13T22:26:04.219Z,79.07
2022-11-13T22:28:51.854Z,74.25
2022-11-13T22:31:39.151Z,81.85
2022-11-13T22:34:25.645Z,73.20
2022-11-13T22:37:13.628Z,82.20
2022-11-13T22:40:00.075Z,83.35
2022-11-13T22:42:46.639Z,76.85
2022-11-13T22:45:34.832Z,83.90
2022-11-13T22:48:21.350Z,81.47
2022-11-13T22:51:10.561Z,81.65
2022-11-13T22:54:00.690Z,85.15
2022-11-13T22:56:47.385Z,81.50
2022-11-13T22:59:33.944Z,87.63
2022-11-13T23:02:20.448Z,84.80
